Terminal Aerodrome Forecast
Issued by NWS Jacksonville, FL

Home | Current Version | Previous Version | Text Only | Print | Product List | Glossary On
Versions: 1 2 3 4 5 6 7 8 9 10 11 12 13 14 15 16
000
FTUS42 KJAX 231800 AAA
TAFGNV
TAF AMD
KGNV 231800Z 2318/2418 06010KT P6SM VCTS SCT020 BKN035CB
      TEMPO 2318/2320 VRB10G25KT 3SM TSRA BKN025CB
     FM232300 05006KT P6SM BKN040=

USA.gov is the U.S. government's official web portal to all federal, state and local government web resources and services.